Time;durP1;ratioP1;P1;durP2;ratioP2;P2;SDS_P1;SDS_P2;PMS_P1;PMS_P2;Temp;Humidity;BMP_temperature;BMP_pressure;BME280_temperature;BME280_humidity;BME280_pressure;Samples;Min_cycle;Max_cycle;Signal;HPM_P1;HPM_P2
2022/10/09 00:00:34;;;;;;;24.33;22.48;;;;;;;13.47;59.32;102448.66;4983969;28;20037;-75
2022/10/09 00:02:59;;;;;;;25.50;22.55;;;;;;;13.45;59.11;102453.47;5017853;28;20056;-75
2022/10/09 00:05:25;;;;;;;23.73;22.33;;;;;;;13.43;59.51;102456.41;5017888;28;20417;-76
2022/10/09 00:07:52;;;;;;;26.05;24.40;;;;;;;13.41;59.37;102448.50;5004565;28;20049;-76
2022/10/09 00:10:17;;;;;;;23.48;22.17;;;;;;;13.40;59.54;102451.41;5016802;28;20112;-75
2022/10/09 00:12:43;;;;;;;24.67;23.15;;;;;;;13.37;59.56;102452.69;4999548;28;20044;-76
2022/10/09 00:15:09;;;;;;;24.67;23.25;;;;;;;13.37;59.23;102451.84;4997472;28;20475;-76
2022/10/09 00:17:34;;;;;;;25.02;23.33;;;;;;;13.35;59.50;102449.34;5015896;28;20108;-76
2022/10/09 00:20:00;;;;;;;25.40;23.63;;;;;;;13.33;59.46;102451.47;5017097;28;20471;-76
2022/10/09 00:22:25;;;;;;;25.15;22.75;;;;;;;13.31;59.36;102453.56;5016283;28;20488;-76
2022/10/09 00:24:50;;;;;;;24.17;22.77;;;;;;;13.29;59.45;102455.66;4979493;28;20077;-76
2022/10/09 00:27:16;;;;;;;25.35;23.50;;;;;;;13.28;59.54;102454.00;5008642;28;20546;-76
2022/10/09 00:29:41;;;;;;;24.05;22.65;;;;;;;13.27;59.45;102455.03;5016195;28;20434;-76
2022/10/09 00:32:06;;;;;;;23.75;22.35;;;;;;;13.24;59.10;102455.47;5016284;28;20455;-76
2022/10/09 00:34:32;;;;;;;22.65;21.45;;;;;;;13.23;59.58;102447.53;5005554;28;20062;-76
2022/10/09 00:36:57;;;;;;;23.77;22.17;;;;;;;13.21;59.19;102447.75;5009372;28;20034;-76
2022/10/09 00:39:22;;;;;;;23.88;22.48;;;;;;;13.19;59.31;102456.09;4998341;28;20030;-76
2022/10/09 00:41:48;;;;;;;23.95;22.23;;;;;;;13.18;59.37;102457.16;5009566;28;20041;-76
2022/10/09 00:44:46;;;;;;;23.00;21.70;;;;;;;13.17;59.35;102460.91;5009484;28;20038;-76
2022/10/09 00:47:21;;;;;;;23.70;22.25;;;;;;;13.14;59.21;102460.53;4994688;28;20489;-76
2022/10/09 00:49:48;;;;;;;24.58;22.77;;;;;;;13.11;59.42;102453.66;4993251;28;20041;-76
2022/10/09 00:52:14;;;;;;;22.15;20.85;;;;;;;13.10;59.44;102451.16;5003749;28;20494;-76
2022/10/09 00:54:41;;;;;;;22.83;21.38;;;;;;;13.09;59.40;102449.50;5013393;28;20038;-76
2022/10/09 00:57:07;;;;;;;23.10;21.38;;;;;;;13.07;59.24;102452.41;5011212;28;20030;-76
2022/10/09 00:59:34;;;;;;;23.70;21.67;;;;;;;13.06;59.76;102449.94;5026582;28;20045;-76
2022/10/09 01:01:59;;;;;;;24.42;22.70;;;;;;;13.04;59.27;102446.59;4997759;28;20167;-76
2022/10/09 01:04:24;;;;;;;22.77;21.38;;;;;;;13.03;59.21;102450.34;5012560;28;20488;-76
2022/10/09 01:07:25;;;;;;;24.55;23.00;;;;;;;13.01;59.32;102447.88;5008049;28;20038;-76
2022/10/09 01:09:56;;;;;;;23.60;22.10;;;;;;;12.99;59.52;102455.41;5006706;28;20043;-76
2022/10/09 01:12:35;;;;;;;23.13;21.88;;;;;;;12.97;59.24;102452.88;5009284;28;20046;-76
2022/10/09 01:15:30;;;;;;;22.20;20.60;;;;;;;12.94;59.28;102445.19;4992683;28;20172;-76
2022/10/09 01:18:11;;;;;;;23.63;22.10;;;;;;;12.92;59.44;102443.75;4989664;28;20092;-76
2022/10/09 01:20:48;;;;;;;22.92;21.63;;;;;;;12.91;59.28;102447.50;5007038;28;20030;-76
2022/10/09 01:23:41;;;;;;;22.30;20.80;;;;;;;12.88;59.13;102446.06;5013580;28;20045;-76
2022/10/09 01:26:12;;;;;;;22.50;21.00;;;;;;;12.87;59.31;102441.69;5012303;28;20486;-76
2022/10/09 01:28:41;;;;;;;22.20;20.90;;;;;;;12.85;59.39;102440.22;4998484;28;20074;-76
2022/10/09 01:31:08;;;;;;;22.30;21.02;;;;;;;12.83;59.29;102432.31;5001138;28;20046;-76
2022/10/09 01:33:34;;;;;;;22.85;21.50;;;;;;;12.83;59.36;102434.22;5011247;28;20561;-77
2022/10/09 01:36:01;;;;;;;23.65;22.23;;;;;;;12.81;59.25;102425.47;5000791;28;20129;-76
2022/10/09 01:38:28;;;;;;;22.27;21.08;;;;;;;12.79;59.24;102422.94;5009728;28;20080;-76
2022/10/09 01:40:55;;;;;;;23.02;21.63;;;;;;;12.77;59.32;102415.06;5001630;28;20034;-76
2022/10/09 01:43:21;;;;;;;22.20;21.00;;;;;;;12.75;59.08;102417.13;5007618;28;20121;-76
2022/10/09 01:45:47;;;;;;;23.67;21.88;;;;;;;12.74;59.28;102417.34;4993910;28;20453;-76
2022/10/09 01:48:23;;;;;;;21.42;20.23;;;;;;;12.72;59.16;102412.13;5012353;28;20033;-76
2022/10/09 01:50:59;;;;;;;22.77;21.48;;;;;;;12.70;59.11;102408.81;5011503;28;20109;-76
2022/10/09 01:53:25;;;;;;;21.08;19.98;;;;;;;12.69;59.34;102406.31;5006975;28;20030;-76
2022/10/09 01:56:23;;;;;;;22.70;21.30;;;;;;;12.67;59.40;102402.97;5007206;28;20030;-76
2022/10/09 01:58:58;;;;;;;21.60;20.10;;;;;;;12.64;58.91;102400.72;4964679;28;20048;-76
2022/10/09 02:01:28;;;;;;;22.35;20.98;;;;;;;12.62;59.27;102397.38;5012410;28;20087;-76
2022/10/09 02:03:57;;;;;;;23.30;21.80;;;;;;;12.61;59.16;102398.44;5008754;28;20064;-76
2022/10/09 02:06:25;;;;;;;22.58;21.17;;;;;;;12.59;59.30;102395.09;5001204;28;20120;-76
2022/10/09 02:08:53;;;;;;;24.42;22.80;;;;;;;12.58;58.96;102396.16;5010881;28;20044;-76
2022/10/09 02:11:19;;;;;;;21.20;20.00;;;;;;;12.56;59.09;102394.47;4994651;28;20126;-76
2022/10/09 02:13:48;;;;;;;23.38;21.98;;;;;;;12.55;59.46;102397.44;4993118;28;20030;-76
2022/10/09 02:16:21;;;;;;;22.90;21.20;;;;;;;12.53;59.38;102391.38;5012680;28;20109;-76
2022/10/09 02:19:00;;;;;;;21.38;20.17;;;;;;;12.51;59.08;102385.34;5011035;28;20049;-76
2022/10/09 02:21:39;;;;;;;21.48;20.27;;;;;;;12.49;59.12;102385.53;5012194;28;20060;-76
2022/10/09 02:24:09;;;;;;;22.23;20.92;;;;;;;12.48;59.33;102383.06;4993292;28;20080;-76
2022/10/09 02:26:35;;;;;;;22.67;21.48;;;;;;;12.46;59.05;102380.56;5009932;28;20026;-76
2022/10/09 02:29:02;;;;;;;23.45;21.73;;;;;;;12.44;59.25;102382.66;5009898;28;20429;-76
2022/10/09 02:31:30;;;;;;;23.98;22.02;;;;;;;12.43;59.14;102378.28;5011890;28;20145;-76
2022/10/09 02:34:00;;;;;;;;;;;;;;;12.41;59.23;102376.84;4998615;28;20548;-76
2022/10/09 02:36:27;;;;;;;21.48;20.17;;;;;;;12.38;59.02;102380.81;4991691;28;19964;-76
2022/10/09 02:38:54;;;;;;;21.85;20.55;;;;;;;12.37;59.15;102381.84;4992448;28;20034;-76
2022/10/09 02:41:20;;;;;;;21.98;20.73;;;;;;;12.36;59.19;102382.06;4995728;28;20033;-76
2022/10/09 02:43:45;;;;;;;20.60;19.42;;;;;;;12.33;59.26;102370.59;4990189;28;20075;-76
2022/10/09 02:46:11;;;;;;;21.95;20.75;;;;;;;12.32;58.96;102374.38;5010321;28;20034;-76
2022/10/09 02:48:36;;;;;;;21.58;20.27;;;;;;;12.30;59.12;102375.63;5010664;28;20042;-76
2022/10/09 02:51:01;;;;;;;23.02;21.60;;;;;;;12.29;59.13;102376.66;4990534;28;20034;-76
2022/10/09 02:53:30;;;;;;;21.85;20.65;;;;;;;12.28;59.18;102369.59;5009941;28;20448;-76
2022/10/09 02:55:55;;;;;;;22.25;20.83;;;;;;;12.26;59.12;102368.97;5010488;28;20030;-76
2022/10/09 02:58:20;;;;;;;22.15;20.85;;;;;;;12.25;59.19;102367.31;5010688;28;20343;-76
2022/10/09 03:00:50;;;;;;;21.83;20.63;;;;;;;12.23;59.15;102370.22;5010838;28;20084;-76
2022/10/09 03:03:17;;;;;;;21.60;20.08;;;;;;;12.21;59.10;102363.38;5009454;28;20108;-76
2022/10/09 03:05:42;;;;;;;21.88;20.48;;;;;;;12.20;58.91;102367.97;4996779;28;20542;-76
2022/10/09 03:08:08;;;;;;;22.55;21.15;;;;;;;12.18;59.02;102355.66;4993438;28;20097;-76
2022/10/09 03:10:36;;;;;;;22.17;20.77;;;;;;;12.17;58.96;102362.13;4994263;28;20034;-76
2022/10/09 03:13:01;;;;;;;22.33;21.00;;;;;;;12.16;59.07;102360.47;4994412;28;20033;-76
2022/10/09 03:15:27;;;;;;;21.75;20.55;;;;;;;12.15;58.75;102356.09;4990959;28;20042;-76
2022/10/09 03:17:52;;;;;;;22.15;20.63;;;;;;;12.12;59.18;102360.91;4990891;28;20117;-76
2022/10/09 03:20:17;;;;;;;21.38;20.02;;;;;;;12.11;59.02;102358.38;5001429;28;20033;-76
2022/10/09 03:22:43;;;;;;;21.27;20.08;;;;;;;12.09;59.17;102358.59;5011652;28;20033;-77
2022/10/09 03:25:08;;;;;;;21.92;20.45;;;;;;;12.08;59.11;102361.53;5007624;28;20104;-77
2022/10/09 03:27:34;;;;;;;20.60;19.35;;;;;;;12.06;58.98;102361.72;5011042;28;20069;-76
2022/10/09 03:29:59;;;;;;;22.02;20.73;;;;;;;12.05;59.09;102376.34;5008926;28;20549;-76
2022/10/09 03:32:25;;;;;;;21.17;19.83;;;;;;;12.04;59.07;102368.41;5011658;28;20058;-76
2022/10/09 03:34:51;;;;;;;21.55;20.35;;;;;;;12.03;59.00;102372.19;5000006;28;20043;-76
2022/10/09 03:37:17;;;;;;;21.70;20.15;;;;;;;12.00;59.04;102370.72;5009737;28;20034;-76
2022/10/09 03:39:42;;;;;;;21.30;20.05;;;;;;;11.99;59.21;102373.63;5010052;28;20390;-76
2022/10/09 03:42:07;;;;;;;23.27;21.85;;;;;;;11.96;58.92;102364.06;5010512;28;20045;-76
2022/10/09 03:44:33;;;;;;;20.30;19.20;;;;;;;11.95;58.93;102367.81;4998561;28;20124;-76
2022/10/09 03:46:58;;;;;;;22.38;21.10;;;;;;;11.94;59.11;102359.91;5009713;28;20030;-76
2022/10/09 03:49:24;;;;;;;21.30;20.10;;;;;;;11.93;59.02;102363.66;5010221;28;20069;-76
2022/10/09 03:51:49;;;;;;;21.20;19.90;;;;;;;11.90;58.84;102363.03;5011256;28;20041;-76
2022/10/09 03:54:14;;;;;;;21.77;20.48;;;;;;;11.90;59.03;102368.44;4998339;28;20042;-76
2022/10/09 03:56:40;;;;;;;21.15;19.85;;;;;;;11.87;58.93;102374.28;4992436;28;20501;-77
2022/10/09 03:59:08;;;;;;;22.98;21.25;;;;;;;11.86;58.86;102369.91;4991740;28;20532;-77
2022/10/09 04:01:34;;;;;;;19.90;18.80;;;;;;;11.85;58.70;102373.63;4995813;28;20034;-76
2022/10/09 04:03:59;;;;;;;23.38;21.95;;;;;;;11.84;58.91;102363.88;5009503;28;20038;-76
2022/10/09 04:06:24;;;;;;;20.88;19.40;;;;;;;11.81;58.96;102364.25;5010575;28;20026;-76
2022/10/09 04:08:50;;;;;;;21.27;19.77;;;;;;;11.81;58.80;102360.72;4993483;28;20188;-76
2022/10/09 04:11:15;;;;;;;21.65;20.35;;;;;;;11.79;58.90;102360.09;4996576;28;20045;-76
2022/10/09 04:13:40;;;;;;;20.83;19.15;;;;;;;11.78;59.16;102358.44;4992289;28;20046;-76
2022/10/09 04:16:11;;;;;;;21.40;20.10;;;;;;;11.76;58.97;102361.34;5009574;28;20046;-76
2022/10/09 04:18:38;;;;;;;23.08;21.48;;;;;;;11.76;58.84;102357.81;5003927;28;20030;-76
2022/10/09 04:21:03;;;;;;;22.67;21.38;;;;;;;11.73;58.91;102361.78;4996739;28;20034;-76
2022/10/09 04:23:29;;;;;;;20.73;19.38;;;;;;;11.72;58.70;102365.53;4988792;28;20096;-75
2022/10/09 04:25:58;;;;;;;20.55;19.35;;;;;;;11.70;58.99;102357.63;4995459;28;20030;-76
2022/10/09 04:28:27;;;;;;;20.23;19.13;;;;;;;11.69;58.93;102352.41;5002487;28;20084;-77
2022/10/09 04:30:52;;;;;;;20.20;19.10;;;;;;;11.67;59.10;102359.94;5001813;28;20073;-75
2022/10/09 04:33:18;;;;;;;21.52;20.23;;;;;;;11.65;58.74;102360.13;5013966;28;20904;-75
2022/10/09 04:35:48;;;;;;;20.75;19.60;;;;;;;11.64;58.68;102358.47;5014680;28;20348;-76
2022/10/09 04:38:13;;;;;;;21.70;20.40;;;;;;;11.62;58.72;102351.59;5009986;28;20038;-76
2022/10/09 04:40:38;;;;;;;23.02;21.52;;;;;;;11.61;59.07;102344.50;5013764;28;20048;-75
2022/10/09 04:43:04;;;;;;;22.98;21.63;;;;;;;11.60;58.98;102345.56;5011764;28;20533;-76
2022/10/09 04:45:29;;;;;;;21.30;20.00;;;;;;;11.58;58.79;102348.47;4993972;28;20057;-76
2022/10/09 04:47:54;;;;;;;20.80;19.40;;;;;;;11.56;58.76;102342.44;5000932;28;20478;-76
2022/10/09 04:50:20;;;;;;;20.58;19.38;;;;;;;11.55;58.97;102339.97;4969073;28;20359;-76
2022/10/09 04:52:45;;;;;;;21.30;20.05;;;;;;;11.54;59.05;102338.28;4996454;28;20062;-76
2022/10/09 04:55:10;;;;;;;22.13;20.73;;;;;;;11.52;58.82;102337.69;4996421;28;20034;-75
2022/10/09 04:57:36;;;;;;;21.05;19.60;;;;;;;11.52;58.75;102337.69;5013063;28;20044;-76
2022/10/09 05:00:02;;;;;;;22.65;21.05;;;;;;;11.50;58.96;102339.75;4995932;28;20037;-75
2022/10/09 05:02:28;;;;;;;20.92;19.63;;;;;;;11.48;58.70;102338.06;5014072;28;20030;-76
2022/10/09 05:04:53;;;;;;;21.60;20.13;;;;;;;11.46;59.00;102334.75;5003204;28;20042;-77
2022/10/09 05:07:18;;;;;;;22.45;21.05;;;;;;;11.45;58.71;102329.56;4992019;28;20157;-77
2022/10/09 05:09:44;;;;;;;20.95;19.48;;;;;;;11.44;58.92;102330.56;4994254;28;20031;-76
2022/10/09 05:12:09;;;;;;;22.63;21.17;;;;;;;11.42;58.65;102325.41;5009710;28;20034;-76
2022/10/09 05:14:34;;;;;;;21.30;19.80;;;;;;;11.40;58.94;102330.19;5012514;28;20116;-76
2022/10/09 05:17:03;;;;;;;21.30;19.58;;;;;;;11.40;58.68;102315.81;5012414;28;20056;-76
2022/10/09 05:19:29;;;;;;;19.90;18.80;;;;;;;11.38;58.81;102312.50;4982321;28;20088;-76
2022/10/09 05:21:55;;;;;;;20.17;18.95;;;;;;;11.36;58.70;102311.84;5006872;28;20116;-75
2022/10/09 05:24:20;;;;;;;21.20;19.90;;;;;;;11.34;58.85;102311.22;5006600;28;20498;-75
2022/10/09 05:26:46;;;;;;;21.25;19.80;;;;;;;11.31;58.75;102312.47;4995312;28;20042;-76
2022/10/09 05:29:11;;;;;;;21.63;20.23;;;;;;;11.30;58.74;102308.13;5008159;28;20053;-75
2022/10/09 05:31:36;;;;;;;22.60;19.27;;;;;;;11.30;58.82;102301.88;4976579;28;20077;-76
2022/10/09 05:34:02;;;;;;;20.95;19.05;;;;;;;11.28;58.58;102307.50;4993828;28;20088;-76
2022/10/09 05:36:28;;;;;;;20.75;19.33;;;;;;;11.26;58.72;102310.44;5008429;28;20030;-76
2022/10/09 05:38:55;;;;;;;21.67;20.25;;;;;;;11.26;58.77;102309.56;5012151;28;20037;-76
2022/10/09 05:41:21;;;;;;;22.10;20.67;;;;;;;11.25;58.79;102308.75;5012847;28;20037;-76
2022/10/09 05:43:48;;;;;;;21.63;20.33;;;;;;;11.24;58.81;102317.91;5013334;28;20421;-76
2022/10/09 05:46:13;;;;;;;22.30;20.70;;;;;;;11.22;58.65;102313.75;5010500;28;20080;-76
2022/10/09 05:48:41;;;;;;;21.38;20.17;;;;;;;11.20;58.76;102319.34;5012684;28;20042;-76
2022/10/09 05:51:14;;;;;;;22.15;20.50;;;;;;;11.19;58.55;102309.59;4995878;28;20041;-76
2022/10/09 05:53:40;;;;;;;21.40;20.00;;;;;;;11.18;58.75;102310.63;4992729;28;20031;-76
2022/10/09 05:56:17;;;;;;;20.55;19.35;;;;;;;11.17;58.77;102317.06;4993012;28;20041;-76
2022/10/09 05:58:44;;;;;;;20.58;19.23;;;;;;;11.15;58.71;102311.03;5002625;28;20033;-76
2022/10/09 06:01:10;;;;;;;20.77;19.42;;;;;;;11.14;58.83;102312.09;5012172;28;20034;-75
2022/10/09 06:03:36;;;;;;;20.17;18.98;;;;;;;11.13;58.97;102315.81;5013053;28;20079;-76
2022/10/09 06:06:04;;;;;;;20.80;19.50;;;;;;;11.13;58.80;102320.41;5013072;28;20033;-76
2022/10/09 06:08:34;;;;;;;20.45;18.77;;;;;;;11.11;58.92;102322.47;5011680;28;20042;-75
2022/10/09 06:11:17;;;;;;;21.38;19.85;;;;;;;11.08;58.63;102315.59;5012657;28;20034;-75
2022/10/09 06:13:43;;;;;;;20.88;19.45;;;;;;;11.07;58.83;102313.13;5013393;28;20085;-75
2022/10/09 06:16:11;;;;;;;19.23;18.13;;;;;;;11.06;58.93;102317.69;5010898;28;20037;-76
2022/10/09 06:18:38;;;;;;;18.80;17.60;;;;;;;11.04;58.76;102314.38;5011357;28;20034;-75
2022/10/09 06:21:04;;;;;;;20.90;19.60;;;;;;;11.03;58.93;102312.69;5008637;28;20540;-75
2022/10/09 06:23:30;;;;;;;19.38;18.13;;;;;;;11.02;58.79;102311.03;5010307;28;20042;-76
2022/10/09 06:26:04;;;;;;;19.48;18.33;;;;;;;11.01;58.79;102310.22;5012774;28;20030;-75
2022/10/09 06:28:32;;;;;;;21.17;19.67;;;;;;;11.00;58.91;102313.13;5012364;28;20030;-75
2022/10/09 06:31:01;;;;;;;19.73;18.48;;;;;;;10.98;58.98;102310.59;5001965;28;20050;-76
2022/10/09 06:33:31;;;;;;;21.10;19.60;;;;;;;10.97;59.08;102318.94;5010537;28;20432;-77
2022/10/09 06:36:02;;;;;;;19.02;17.60;;;;;;;10.96;58.60;102322.66;5011264;28;20038;-76
2022/10/09 06:38:27;;;;;;;22.77;21.05;;;;;;;10.94;58.93;102328.31;5011765;28;20088;-75
2022/10/09 06:40:53;;;;;;;20.75;19.42;;;;;;;10.93;58.91;102326.63;5010020;28;20042;-75
2022/10/09 06:43:18;;;;;;;22.60;21.02;;;;;;;10.92;58.71;102327.66;4990435;28;20415;-76
2022/10/09 06:45:43;;;;;;;20.33;19.05;;;;;;;10.91;58.94;102326.00;4992583;28;20129;-76
2022/10/09 06:48:09;;;;;;;20.80;19.20;;;;;;;10.90;59.16;102321.63;5007069;28;20038;-76
2022/10/09 06:50:36;;;;;;;21.17;19.63;;;;;;;10.89;58.89;102330.78;4988539;28;20056;-76
2022/10/09 06:53:03;;;;;;;20.45;19.15;;;;;;;10.87;58.98;102330.16;5007558;28;20367;-76
2022/10/09 06:55:29;;;;;;;21.83;20.20;;;;;;;10.87;58.98;102338.25;4997411;28;20497;-76
2022/10/09 06:57:54;;;;;;;19.55;18.35;;;;;;;10.86;59.11;102330.34;5002361;28;20034;-76
2022/10/09 07:00:19;;;;;;;20.60;19.20;;;;;;;10.85;59.07;102320.59;4994313;28;20084;-76
2022/10/09 07:02:45;;;;;;;21.13;19.73;;;;;;;10.85;58.90;102329.53;5009712;28;20049;-76
2022/10/09 07:05:10;;;;;;;20.73;19.17;;;;;;;10.83;59.01;102327.03;5011980;28;20068;-77
2022/10/09 07:07:39;;;;;;;20.20;18.70;;;;;;;10.83;58.98;102323.50;5006798;28;20379;-77
2022/10/09 07:10:04;;;;;;;21.67;20.13;;;;;;;10.82;58.95;102329.94;4991215;28;20053;-77
2022/10/09 07:12:30;;;;;;;21.42;19.85;;;;;;;10.81;58.82;102318.31;5002712;28;20482;-76
2022/10/09 07:14:55;;;;;;;22.25;20.45;;;;;;;10.80;59.27;102323.91;4999280;28;20065;-76
2022/10/09 07:17:20;;;;;;;21.80;20.15;;;;;;;10.79;59.08;102324.94;5004942;28;20042;-76
2022/10/09 07:19:47;;;;;;;20.95;19.45;;;;;;;10.77;59.09;102325.16;5010784;28;20355;-76
2022/10/09 07:22:13;;;;;;;21.60;20.08;;;;;;;10.78;59.09;102328.69;5012092;28;20513;-76
2022/10/09 07:24:38;;;;;;;21.75;20.05;;;;;;;10.78;59.39;102320.56;5000133;28;20251;-76
2022/10/09 07:27:04;;;;;;;19.83;18.58;;;;;;;10.76;59.15;102323.50;4982790;28;20065;-76
2022/10/09 07:29:29;;;;;;;23.17;21.25;;;;;;;10.77;59.25;102327.03;4999729;28;20077;-77
2022/10/09 07:31:55;;;;;;;22.15;20.58;;;;;;;10.76;59.26;102325.34;4992303;28;20054;-76
2022/10/09 07:34:20;;;;;;;22.80;21.08;;;;;;;10.75;59.17;102324.50;4975244;28;20042;-76
2022/10/09 07:36:45;;;;;;;20.33;18.92;;;;;;;10.75;59.41;102324.50;4993361;28;20034;-77
2022/10/09 07:39:11;;;;;;;20.80;19.30;;;;;;;10.74;59.28;102324.75;4958813;28;20471;-76
2022/10/09 07:41:36;;;;;;;21.73;20.02;;;;;;;10.74;59.31;102322.03;4975017;28;20073;-76
2022/10/09 07:44:02;;;;;;;21.15;19.77;;;;;;;10.73;59.49;102323.88;5005460;28;20025;-76
2022/10/09 07:46:28;;;;;;;21.58;20.08;;;;;;;10.73;59.10;102320.34;4994822;28;20038;-77
2022/10/09 07:48:53;;;;;;;19.80;18.50;;;;;;;10.72;59.49;102324.94;5009347;28;20125;-76
2022/10/09 07:51:22;;;;;;;22.17;20.52;;;;;;;10.72;59.23;102314.13;5015605;28;20117;-77
2022/10/09 07:53:48;;;;;;;19.90;18.70;;;;;;;10.73;59.21;102321.19;5015776;28;20470;-78
2022/10/09 07:56:16;;;;;;;21.33;19.50;;;;;;;10.72;59.29;102321.41;5013209;28;20031;-78
2022/10/09 07:58:42;;;;;;;19.53;18.17;;;;;;;10.70;59.26;102313.47;5000167;28;20035;-78
2022/10/09 08:01:09;;;;;;;20.70;19.20;;;;;;;10.71;59.34;102315.16;5018062;28;20289;-78
2022/10/09 08:03:36;;;;;;;22.15;20.55;;;;;;;10.70;59.44;102309.97;5015345;28;20044;-77
2022/10/09 08:06:02;;;;;;;20.02;18.77;;;;;;;10.70;59.72;102310.78;4982668;28;20434;-77
2022/10/09 08:08:28;;;;;;;25.00;20.10;;;;;;;10.70;59.76;102313.47;5014602;28;20038;-76
2022/10/09 08:10:53;;;;;;;20.90;19.20;;;;;;;10.69;59.58;102303.72;5008146;28;20065;-76
2022/10/09 08:13:19;;;;;;;22.55;21.08;;;;;;;10.67;59.71;102300.38;4995534;28;20061;-75
2022/10/09 08:15:44;;;;;;;20.70;19.20;;;;;;;10.67;59.62;102304.97;4990676;28;20038;-76
2022/10/09 08:18:10;;;;;;;21.90;20.27;;;;;;;10.66;59.57;102295.19;4997969;28;20057;-75
2022/10/09 08:20:37;;;;;;;21.23;19.77;;;;;;;10.66;59.91;102300.59;5004201;28;20585;-75
2022/10/09 08:23:02;;;;;;;20.80;19.27;;;;;;;10.66;59.58;102296.03;5004297;28;20038;-76
2022/10/09 08:25:28;;;;;;;23.17;21.50;;;;;;;10.66;59.80;102296.03;5012261;28;20037;-77
2022/10/09 08:27:55;;;;;;;19.67;18.48;;;;;;;10.66;59.74;102297.88;4993732;28;20042;-76
2022/10/09 08:30:20;;;;;;;21.73;19.90;;;;;;;10.66;59.81;102287.06;4994479;28;20061;-75
2022/10/09 08:32:46;;;;;;;20.10;18.88;;;;;;;10.65;59.80;102297.06;4994803;28;20475;-75
2022/10/09 08:35:11;;;;;;;20.38;18.55;;;;;;;10.65;59.66;102294.34;5002505;28;20113;-76
2022/10/09 08:37:37;;;;;;;20.95;19.38;;;;;;;10.66;59.90;102293.34;5007845;28;20038;-76
2022/10/09 08:40:04;;;;;;;21.02;19.63;;;;;;;10.65;59.92;102290.81;4995294;28;20034;-76
2022/10/09 08:42:46;;;;;;;20.15;18.75;;;;;;;10.64;60.10;102290.00;5006841;28;20463;-75
2022/10/09 08:45:16;;;;;;;23.23;21.52;;;;;;;10.63;60.06;102288.31;4997328;28;20041;-75
2022/10/09 08:47:47;;;;;;;20.25;18.48;;;;;;;10.65;60.19;102285.41;4977687;28;20389;-77
2022/10/09 08:50:21;;;;;;;21.30;19.65;;;;;;;10.65;60.27;102291.66;4994788;28;20471;-76
2022/10/09 08:53:06;;;;;;;22.58;20.70;;;;;;;10.65;60.57;102285.41;5007232;28;20117;-76
2022/10/09 08:55:42;;;;;;;23.00;21.23;;;;;;;10.64;60.21;102273.78;5004739;28;20077;-76
2022/10/09 08:58:13;;;;;;;22.45;20.25;;;;;;;10.65;60.72;102277.31;5009071;28;20033;-76
2022/10/09 09:00:43;;;;;;;23.83;21.95;;;;;;;10.64;60.90;102279.19;5003110;28;20038;-76
2022/10/09 09:03:46;;;;;;;21.35;19.63;;;;;;;10.65;61.44;102269.19;5005333;28;20096;-75
2022/10/09 09:06:27;;;;;;;21.65;19.05;;;;;;;10.64;61.11;102270.25;5006308;28;20060;-76
2022/10/09 09:09:09;;;;;;;19.30;18.10;;;;;;;10.64;60.98;102267.56;5008486;28;20072;-72
2022/10/09 09:11:43;;;;;;;22.63;19.73;;;;;;;10.63;60.88;102266.69;5009785;28;20034;-76
2022/10/09 09:14:27;;;;;;;20.27;18.67;;;;;;;10.63;61.31;102255.06;5009142;28;20129;-76
2022/10/09 09:17:16;;;;;;;19.65;18.02;;;;;;;10.62;61.22;102246.13;5007075;28;20074;-76
2022/10/09 09:20:02;;;;;;;22.90;20.60;;;;;;;10.63;61.34;102244.25;5007812;28;20045;-73
2022/10/09 09:22:29;;;;;;;22.63;20.65;;;;;;;10.63;61.20;102247.78;5000964;28;20109;-76
2022/10/09 09:24:57;;;;;;;21.45;19.63;;;;;;;10.65;61.29;102242.19;5008000;28;20038;-75
2022/10/09 09:27:34;;;;;;;23.58;21.45;;;;;;;10.64;61.44;102233.25;5003297;28;20111;-76
2022/10/09 09:30:14;;;;;;;23.20;21.40;;;;;;;10.66;61.65;102227.63;5002319;28;20034;-76
2022/10/09 09:32:53;;;;;;;24.20;22.20;;;;;;;10.67;62.05;102226.59;5006190;28;20061;-76
2022/10/09 09:35:26;;;;;;;21.35;19.13;;;;;;;10.68;62.14;102225.53;5007045;28;20130;-76
2022/10/09 09:37:52;;;;;;;17.80;16.77;;;;;;;10.70;62.05;102210.78;5006508;28;20034;-76
2022/10/09 09:40:19;;;;;;;19.83;18.52;;;;;;;10.71;62.10;102215.16;5003886;28;20073;-73
2022/10/09 09:42:45;;;;;;;23.45;21.35;;;;;;;10.71;62.34;102217.03;5007236;28;20061;-76
2022/10/09 09:45:23;;;;;;;19.02;17.83;;;;;;;10.73;62.64;102207.66;5005987;28;20460;-80
2022/10/09 09:47:54;;;;;;;19.95;18.65;;;;;;;10.73;62.29;102207.66;5002536;28;20062;-76
2022/10/09 09:50:28;;;;;;;21.15;19.17;;;;;;;10.76;62.05;102203.72;5010339;28;20461;-75
2022/10/09 09:52:55;;;;;;;19.98;18.63;;;;;;;10.76;62.19;102201.88;5007771;28;20088;-76
2022/10/09 09:55:26;;;;;;;21.08;19.17;;;;;;;10.79;62.15;102195.22;5010269;28;20470;-75
2022/10/09 09:57:59;;;;;;;20.52;18.90;;;;;;;10.80;62.28;102186.06;5006943;28;20088;-76
2022/10/09 10:00:24;;;;;;;21.55;19.88;;;;;;;10.83;62.41;102185.63;5007834;28;20025;-76
2022/10/09 10:03:11;;;;;;;19.05;17.92;;;;;;;10.83;62.21;102186.47;5005367;28;20093;-76
2022/10/09 10:05:37;;;;;;;21.20;19.40;;;;;;;10.86;62.30;102184.38;5004183;28;20088;-76
2022/10/09 10:08:21;;;;;;;20.60;18.95;;;;;;;10.87;62.72;102183.34;5005137;28;20026;-76
2022/10/09 10:10:48;;;;;;;22.10;20.17;;;;;;;10.89;62.83;102178.56;5006939;28;20038;-76
2022/10/09 10:13:26;;;;;;;19.98;18.77;;;;;;;10.91;62.97;102179.16;5000792;28;20500;-76
2022/10/09 10:15:54;;;;;;;20.20;18.60;;;;;;;10.92;63.16;102176.28;5009453;28;20483;-74
2022/10/09 10:18:22;;;;;;;21.10;19.20;;;;;;;10.94;63.14;102178.78;5002790;28;20084;-76
2022/10/09 10:20:52;;;;;;;22.23;20.42;;;;;;;10.95;63.22;102175.03;5006303;28;20029;-76
2022/10/09 10:23:23;;;;;;;20.25;18.63;;;;;;;10.96;63.04;102174.81;5007909;28;20030;-75
2022/10/09 10:25:52;;;;;;;22.40;20.58;;;;;;;10.97;62.94;102165.66;5006275;28;20122;-78
2022/10/09 10:28:25;;;;;;;21.00;18.65;;;;;;;10.98;62.81;102161.91;5001631;28;20033;-76
2022/10/09 10:30:51;;;;;;;20.95;19.27;;;;;;;11.00;62.55;102165.22;5008078;28;20136;-76
2022/10/09 10:33:22;;;;;;;21.83;19.98;;;;;;;11.03;62.91;102161.28;5004053;28;20402;-77
2022/10/09 10:35:52;;;;;;;24.02;22.15;;;;;;;11.04;62.97;102152.13;5005835;28;20057;-81
2022/10/09 10:38:38;;;;;;;19.83;18.42;;;;;;;11.05;63.01;102151.09;5005106;28;20058;-73
2022/10/09 10:41:29;;;;;;;20.85;19.42;;;;;;;11.07;62.80;102151.72;5005158;28;20631;-76
2022/10/09 10:44:05;;;;;;;21.92;20.25;;;;;;;11.06;63.00;102141.91;5004350;28;20037;-74
2022/10/09 10:46:37;;;;;;;21.48;19.55;;;;;;;11.07;62.84;102149.00;5006326;28;20041;-74
2022/10/09 10:49:02;;;;;;;20.02;18.83;;;;;;;11.09;62.91;102138.81;5003508;28;20065;-76
2022/10/09 10:51:37;;;;;;;20.90;19.65;;;;;;;11.11;63.04;102135.88;5008025;28;20046;-74
2022/10/09 10:54:34;;;;;;;20.08;18.88;;;;;;;11.13;62.71;102139.22;4998888;28;20121;-75
2022/10/09 10:57:02;;;;;;;21.23;19.13;;;;;;;11.12;62.50;102130.28;4997943;28;20710;-75
2022/10/09 10:59:35;;;;;;;24.73;20.17;;;;;;;11.15;62.58;102131.72;4997263;28;20045;-76
2022/10/09 11:02:35;;;;;;;20.23;18.75;;;;;;;11.16;62.44;102120.69;4995282;28;20054;-75
2022/10/09 11:05:31;;;;;;;20.60;19.10;;;;;;;11.18;62.37;102123.16;4996383;28;20034;-75
2022/10/09 11:08:27;;;;;;;20.63;19.23;;;;;;;11.21;62.36;102109.22;5006526;28;20041;-75
2022/10/09 11:11:20;;;;;;;21.88;20.05;;;;;;;11.23;62.41;102107.97;5005024;28;20088;-75
2022/10/09 11:13:46;;;;;;;22.40;20.80;;;;;;;11.24;62.27;102100.69;5002692;28;20030;-75
2022/10/09 11:16:31;;;;;;;20.30;19.02;;;;;;;11.27;62.23;102105.69;5002463;28;20054;-75
2022/10/09 11:19:26;;;;;;;20.98;19.67;;;;;;;11.29;62.27;102084.66;5005680;28;20106;-75